createdAt,value
2019-06-07T00:01:47.566Z,25.50
2019-06-07T00:04:16.855Z,26.40
2019-06-07T00:06:46.182Z,26.60
2019-06-07T00:09:18.652Z,27.40
2019-06-07T00:11:47.020Z,27.50
2019-06-07T00:14:18.237Z,27.20
2019-06-07T00:16:47.563Z,27.30
2019-06-07T00:19:18.833Z,26.90
2019-06-07T00:24:21.534Z,26.90
2019-06-07T00:26:58.210Z,27.00
2019-06-07T00:29:22.007Z,27.10
2019-06-07T00:31:51.470Z,27.20
2019-06-07T00:34:22.985Z,26.90
2019-06-07T00:36:52.058Z,27.30
2019-06-07T00:39:25.084Z,27.00
2019-06-07T00:41:52.372Z,26.80
2019-06-07T00:44:23.458Z,26.90
2019-06-07T00:46:53.045Z,26.90
2019-06-07T00:49:39.989Z,26.80
2019-06-07T00:51:53.811Z,26.60
2019-06-07T00:54:24.827Z,27.30
2019-06-07T00:56:54.914Z,26.80
2019-06-07T00:59:29.274Z,26.90
2019-06-07T01:01:55.818Z,26.60
2019-06-07T01:04:26.048Z,26.40
2019-06-07T01:06:56.164Z,25.90
2019-06-07T01:09:25.697Z,26.00
2019-06-07T01:11:55.170Z,25.80
2019-06-07T01:14:27.779Z,25.70
2019-06-07T01:17:01.471Z,25.50
2019-06-07T01:19:27.875Z,25.20
2019-06-07T01:21:57.518Z,25.50
2019-06-07T01:24:28.046Z,25.80
2019-06-07T01:26:57.520Z,26.30
2019-06-07T01:29:30.307Z,26.30
2019-06-07T01:31:57.831Z,27.20
2019-06-07T01:34:28.674Z,28.10
2019-06-07T01:36:58.313Z,27.90
2019-06-07T01:39:29.737Z,27.30
2019-06-07T01:41:58.633Z,27.60
2019-06-07T01:44:30.343Z,28.20
2019-06-07T01:46:58.930Z,27.70
2019-06-07T01:49:29.766Z,27.70
2019-06-07T01:51:59.506Z,27.70
2019-06-07T01:56:59.801Z,28.10
2019-06-07T01:59:31.588Z,26.80
2019-06-07T02:02:00.395Z,27.10
2019-06-07T02:04:32.789Z,26.50
2019-06-07T02:07:00.737Z,26.90
2019-06-07T02:09:31.922Z,26.90
2019-06-07T02:12:01.444Z,27.10
2019-06-07T02:14:33.476Z,27.60
2019-06-07T02:17:02.658Z,27.30
2019-06-07T02:19:33.376Z,27.20
2019-06-07T02:22:03.125Z,26.30
2019-06-07T02:24:35.589Z,26.50
2019-06-07T02:27:03.949Z,26.10
2019-06-07T02:29:33.830Z,26.30
2019-06-07T02:32:03.366Z,26.20
2019-06-07T02:34:38.501Z,26.50
2019-06-07T02:37:04.055Z,26.90
2019-06-07T02:39:38.103Z,26.50
2019-06-07T02:42:05.317Z,26.20
2019-06-07T02:44:39.170Z,26.50
2019-06-07T02:47:05.600Z,26.20
2019-06-07T02:49:40.865Z,25.80
2019-06-07T02:52:06.007Z,26.00
2019-06-07T02:54:39.774Z,25.80
2019-06-07T02:57:06.505Z,26.50
2019-06-07T03:00:04.430Z,27.10
2019-06-07T03:02:07.068Z,27.90
2019-06-07T03:04:41.785Z,28.40
2019-06-07T03:07:08.344Z,28.70
2019-06-07T03:09:39.990Z,29.70
2019-06-07T03:12:11.235Z,32.20
2019-06-07T03:14:41.684Z,35.10
2019-06-07T03:17:15.940Z,35.90
2019-06-07T03:19:48.546Z,37.60
2019-06-07T03:22:17.914Z,37.50
2019-06-07T03:24:48.769Z,38.20
2019-06-07T03:27:41.515Z,39.00
2019-06-07T03:29:50.245Z,39.30
2019-06-07T03:32:19.553Z,39.20
2019-06-07T03:34:48.843Z,39.50
2019-06-07T03:37:18.146Z,38.50
2019-06-07T03:39:47.452Z,38.20
2019-06-07T03:42:16.768Z,36.70
2019-06-07T03:44:46.063Z,36.10
2019-06-07T03:47:15.384Z,35.30
2019-06-07T03:49:44.700Z,34.20
2019-06-07T03:52:13.992Z,34.00
2019-06-07T03:54:43.567Z,34.50
2019-06-07T03:57:12.860Z,34.50
2019-06-07T03:59:42.245Z,34.20
2019-06-07T04:02:11.580Z,33.90
2019-06-07T04:04:40.885Z,34.80
2019-06-07T04:07:10.437Z,36.40
2019-06-07T04:09:42.832Z,38.50
2019-06-07T04:12:10.729Z,39.80
2019-06-07T04:14:42.542Z,41.40
2019-06-07T04:17:11.451Z,42.50
2019-06-07T04:19:43.313Z,41.40
2019-06-07T04:22:12.022Z,42.40
2019-06-07T04:24:42.077Z,42.20
2019-06-07T04:27:11.517Z,43.90
2019-06-07T04:30:03.136Z,43.50
2019-06-07T04:32:11.828Z,45.50
2019-06-07T04:34:43.031Z,45.10
2019-06-07T04:37:13.967Z,46.20
2019-06-07T04:39:45.471Z,47.50
2019-06-07T04:42:17.227Z,50.40
2019-06-07T04:44:48.386Z,50.80
2019-06-07T04:47:19.639Z,52.40
2019-06-07T04:49:49.718Z,54.00
2019-06-07T04:52:19.012Z,57.00
2019-06-07T04:54:48.330Z,58.30
2019-06-07T04:57:17.645Z,58.00
2019-06-07T05:00:11.858Z,58.60
2019-06-07T05:02:18.447Z,59.50
2019-06-07T05:04:48.056Z,60.50
2019-06-07T05:07:17.629Z,61.70
2019-06-07T05:09:47.006Z,60.10
2019-06-07T05:12:16.304Z,60.50
2019-06-07T05:14:45.693Z,60.30
2019-06-07T05:17:15.053Z,59.70
2019-06-07T05:19:44.826Z,59.70
2019-06-07T05:22:14.331Z,57.60
2019-06-07T05:24:43.904Z,58.70
2019-06-07T05:27:13.512Z,58.60
2019-06-07T05:29:45.953Z,57.60
2019-06-07T05:32:14.964Z,56.70
2019-06-07T05:34:47.400Z,57.90
2019-06-07T05:37:15.671Z,57.80
2019-06-07T05:39:46.457Z,55.50
2019-06-07T05:42:16.244Z,57.00
2019-06-07T05:44:45.968Z,57.60
2019-06-07T05:47:15.466Z,57.70
2019-06-07T05:49:47.155Z,58.00
2019-06-07T05:52:15.818Z,57.90
2019-06-07T05:54:46.826Z,56.80
2019-06-07T05:57:16.116Z,56.00
2019-06-07T05:59:47.565Z,56.00
2019-06-07T06:02:22.507Z,53.40
2019-06-07T06:04:49.301Z,51.60
2019-06-07T06:07:18.908Z,51.80
2019-06-07T06:09:48.199Z,51.10
2019-06-07T06:12:34.089Z,52.50
2019-06-07T06:14:48.502Z,52.00
2019-06-07T06:17:17.820Z,51.50
2019-06-07T06:19:50.385Z,51.40
2019-06-07T06:22:18.118Z,50.00
2019-06-07T06:25:28.999Z,49.90
2019-06-07T06:28:02.733Z,49.30
2019-06-07T06:29:52.412Z,47.80
2019-06-07T06:34:53.858Z,43.00
2019-06-07T06:37:23.567Z,38.90
2019-06-07T06:39:52.886Z,38.60
2019-06-07T06:42:22.164Z,35.80
2019-06-07T06:44:54.073Z,34.30
2019-06-07T06:47:22.715Z,34.30
2019-06-07T06:49:54.256Z,30.90
2019-06-07T06:52:23.012Z,32.10
2019-06-07T06:55:00.104Z,31.80
2019-06-07T06:57:23.384Z,29.10
2019-06-07T06:59:52.909Z,27.60
2019-06-07T07:02:22.372Z,29.50
2019-06-07T07:04:53.423Z,30.00
2019-06-07T07:07:23.941Z,30.70
2019-06-07T07:09:59.086Z,30.40
2019-06-07T07:12:24.303Z,28.00
2019-06-07T07:14:56.063Z,28.90
2019-06-07T07:17:46.881Z,28.90
2019-06-07T07:19:55.899Z,29.20
2019-06-07T07:22:25.244Z,28.10
2019-06-07T07:24:54.991Z,28.70
2019-06-07T07:27:24.416Z,28.20
2019-06-07T07:30:34.312Z,27.50
2019-06-07T07:32:24.745Z,27.30
2019-06-07T07:35:00.024Z,26.30
2019-06-07T07:37:25.031Z,25.80
2019-06-07T07:40:01.664Z,26.00
2019-06-07T07:42:25.352Z,26.90
2019-06-07T07:44:56.508Z,26.00
2019-06-07T07:47:25.957Z,26.70
2019-06-07T07:49:58.506Z,26.50
2019-06-07T07:52:26.252Z,27.30
2019-06-07T07:54:56.630Z,26.00
2019-06-07T07:57:26.823Z,25.60
2019-06-07T08:00:17.748Z,25.00
2019-06-07T08:02:27.111Z,26.90
2019-06-07T08:07:28.127Z,26.20
2019-06-07T08:10:02.907Z,25.00
2019-06-07T08:12:28.635Z,23.60
2019-06-07T08:15:02.844Z,23.20
2019-06-07T08:17:29.241Z,23.00
2019-06-07T08:20:17.938Z,22.40
2019-06-07T08:22:47.658Z,20.20
2019-06-07T08:25:17.348Z,19.80
2019-06-07T08:27:47.059Z,20.20
2019-06-07T08:30:46.996Z,18.30
2019-06-07T08:32:52.630Z,18.80
2019-06-07T08:36:02.971Z,19.00
2019-06-07T08:40:22.749Z,18.20
2019-06-07T08:43:10.969Z,15.10
2019-06-07T08:45:23.126Z,15.70
2019-06-07T08:47:58.940Z,15.20
2019-06-07T08:50:25.236Z,11.40
2019-06-07T08:53:00.007Z,12.20
2019-06-07T08:55:25.523Z,10.40
2019-06-07T08:58:02.277Z,12.20
2019-06-07T09:03:00.951Z,9.60
2019-06-07T09:05:28.374Z,9.60
2019-06-07T09:08:21.906Z,10.30
2019-06-07T09:10:28.815Z,8.20
2019-06-07T09:13:03.853Z,7.60
2019-06-07T09:15:29.332Z,7.40
2019-06-07T09:20:44.904Z,3.90
2019-06-07T09:23:17.020Z,3.60
2019-06-07T09:25:57.577Z,4.90
2019-06-07T09:28:19.990Z,4.20
2019-06-07T09:30:47.435Z,2.80
2019-06-07T09:33:16.742Z,6.40
2019-06-07T09:35:46.268Z,3.60
2019-06-07T09:38:24.982Z,1.60
2019-06-07T09:40:46.538Z,1.40
2019-06-07T09:44:00.767Z,1.00
2019-06-07T09:45:46.821Z,2.60
2019-06-07T09:48:47.589Z,1.00
2019-06-07T09:50:47.401Z,1.00
2019-06-07T09:53:22.779Z,1.00
2019-06-07T09:55:48.028Z,1.00
2019-06-07T09:58:50.056Z,1.00
2019-06-07T10:00:48.343Z,1.00
2019-06-07T10:03:21.972Z,1.00
2019-06-07T10:05:48.619Z,1.00
2019-06-07T10:09:31.690Z,1.00
2019-06-07T10:10:49.144Z,1.00
2019-06-07T10:13:18.437Z,1.00
2019-06-07T10:15:47.709Z,1.00
2019-06-07T10:18:17.286Z,1.00
2019-06-07T10:20:46.560Z,1.00
2019-06-07T10:23:15.861Z,1.00
2019-06-07T10:25:45.165Z,1.00
2019-06-07T10:28:14.472Z,1.00
2019-06-07T10:30:43.776Z,1.00
2019-06-07T10:33:13.071Z,1.00
2019-06-07T10:35:42.602Z,1.00
2019-06-07T10:38:11.899Z,1.00
2019-06-07T10:40:41.348Z,1.00
2019-06-07T10:43:14.317Z,1.00
2019-06-07T10:45:42.120Z,1.00
2019-06-07T10:48:11.770Z,1.00
2019-06-07T10:50:41.180Z,1.00
2019-06-07T10:53:10.899Z,1.00
2019-06-07T10:55:40.230Z,1.00
2019-06-07T10:58:09.518Z,1.00
2019-06-07T11:00:38.858Z,1.00
2019-06-07T11:03:08.221Z,1.00
2019-06-07T11:05:39.112Z,1.00
2019-06-07T11:08:10.080Z,1.00
2019-06-07T11:10:39.680Z,1.00
2019-06-07T11:13:10.404Z,1.00
2019-06-07T11:15:40.108Z,1.00
2019-06-07T11:18:10.262Z,1.00
2019-06-07T11:20:40.046Z,1.00
2019-06-07T11:23:10.150Z,1.00
2019-06-07T11:25:39.594Z,1.00
2019-06-07T11:28:10.399Z,1.00
2019-06-07T11:30:39.944Z,1.00
2019-06-07T11:33:11.858Z,1.00
2019-06-07T11:35:40.764Z,1.00
2019-06-07T11:38:10.555Z,1.00
2019-06-07T11:40:39.919Z,1.00
2019-06-07T11:43:09.194Z,1.00
2019-06-07T11:45:38.480Z,1.00
2019-06-07T11:48:09.015Z,1.00
2019-06-07T11:50:38.716Z,1.00
2019-06-07T11:53:08.595Z,1.00
2019-06-07T11:55:37.971Z,1.00
2019-06-07T11:58:11.127Z,1.00
2019-06-07T12:00:38.248Z,1.00
2019-06-07T12:03:07.541Z,1.00
2019-06-07T12:05:36.817Z,1.00
2019-06-07T12:08:06.288Z,1.00
2019-06-07T12:10:42.376Z,1.00
2019-06-07T12:13:06.680Z,1.00
2019-06-07T12:15:35.946Z,1.00
2019-06-07T12:18:05.301Z,1.00
2019-06-07T12:20:34.633Z,1.00
2019-06-07T12:23:03.987Z,1.00
2019-06-07T12:25:33.276Z,1.00
2019-06-07T12:28:02.568Z,1.00
2019-06-07T12:30:31.848Z,1.00
2019-06-07T12:33:01.151Z,1.00
2019-06-07T12:35:30.439Z,1.00
2019-06-07T12:37:59.732Z,1.00
2019-06-07T12:40:32.288Z,1.00
2019-06-07T12:43:00.289Z,1.00
2019-06-07T12:45:44.261Z,1.00
2019-06-07T12:48:00.576Z,1.00
2019-06-07T12:50:42.552Z,1.00
2019-06-07T12:53:00.851Z,1.00
2019-06-07T12:55:30.119Z,1.00
2019-06-07T12:57:59.425Z,1.00
2019-06-07T13:00:29.171Z,1.00
2019-06-07T13:02:58.456Z,1.00
2019-06-07T13:05:28.033Z,1.00
2019-06-07T13:07:57.400Z,1.00
2019-06-07T13:10:26.712Z,1.00
2019-06-07T13:12:55.993Z,1.00
2019-06-07T13:15:26.091Z,1.00
2019-06-07T13:17:55.435Z,1.00
2019-06-07T13:20:24.896Z,1.00
2019-06-07T13:22:54.473Z,1.00
2019-06-07T13:25:41.092Z,1.00
2019-06-07T13:27:55.472Z,1.00
2019-06-07T13:30:25.557Z,1.00
2019-06-07T13:32:55.025Z,1.00
2019-06-07T13:35:25.352Z,1.00
2019-06-07T13:37:54.941Z,1.00
2019-06-07T13:40:25.210Z,1.00
2019-06-07T13:42:54.614Z,1.00
2019-06-07T13:45:24.303Z,1.00
2019-06-07T13:47:53.812Z,1.00
2019-06-07T13:50:24.133Z,1.00
2019-06-07T13:52:53.535Z,1.00
2019-06-07T13:55:23.961Z,1.00
2019-06-07T13:57:53.389Z,1.00
2019-06-07T14:00:23.143Z,1.00
2019-06-07T14:02:53.721Z,1.00
2019-06-07T14:05:23.169Z,1.00
2019-06-07T14:07:52.574Z,1.00
2019-06-07T14:10:21.877Z,1.00
2019-06-07T14:12:51.623Z,1.00
2019-06-07T14:15:22.342Z,1.00
2019-06-07T14:17:51.812Z,1.00
2019-06-07T14:20:26.785Z,1.00
2019-06-07T14:22:54.509Z,1.00
2019-06-07T14:25:25.136Z,1.00
2019-06-07T14:27:54.475Z,1.00
2019-06-07T14:30:24.089Z,1.00
2019-06-07T14:32:53.537Z,1.00
2019-06-07T14:35:22.896Z,1.00
2019-06-07T14:37:52.341Z,1.00
2019-06-07T14:40:23.130Z,1.00
2019-06-07T14:42:52.608Z,1.00
2019-06-07T14:45:23.537Z,1.00
2019-06-07T14:47:52.950Z,1.00
2019-06-07T14:50:22.467Z,1.00
2019-06-07T14:52:51.760Z,1.00
2019-06-07T14:55:21.102Z,1.00
2019-06-07T14:57:50.428Z,1.00
2019-06-07T15:00:20.202Z,1.00
2019-06-07T15:02:49.555Z,1.00
2019-06-07T15:05:21.913Z,1.00
2019-06-07T15:07:51.276Z,1.00
2019-06-07T15:10:20.559Z,1.00
2019-06-07T15:12:49.848Z,1.00
2019-06-07T15:15:19.204Z,1.00
2019-06-07T15:17:48.536Z,1.00
2019-06-07T15:20:17.889Z,1.00
2019-06-07T15:22:47.163Z,1.00
2019-06-07T15:25:16.464Z,1.00
2019-06-07T15:27:45.732Z,1.00
2019-06-07T15:30:15.284Z,1.00
2019-06-07T15:32:44.568Z,1.00
2019-06-07T15:35:14.196Z,1.00
2019-06-07T15:37:43.472Z,1.00
2019-06-07T15:40:13.107Z,1.00
2019-06-07T15:42:52.084Z,1.00
2019-06-07T15:45:13.534Z,1.00
2019-06-07T15:47:42.824Z,1.00
2019-06-07T15:50:12.546Z,1.00
2019-06-07T15:52:43.259Z,1.00
2019-06-07T15:55:12.879Z,1.00
2019-06-07T15:57:42.526Z,1.00
2019-06-07T16:00:17.936Z,1.00
2019-06-07T16:02:47.481Z,1.00
2019-06-07T16:05:17.109Z,1.00
2019-06-07T16:07:46.403Z,1.00
2019-06-07T16:10:15.942Z,1.00
2019-06-07T16:12:59.734Z,1.00
2019-06-07T16:15:16.765Z,1.00
2019-06-07T16:17:46.052Z,1.00
2019-06-07T16:20:15.866Z,1.00
2019-06-07T16:22:45.161Z,1.00
2019-06-07T16:25:15.880Z,1.00
2019-06-07T16:27:45.316Z,1.00
2019-06-07T16:30:15.086Z,1.00
2019-06-07T16:32:46.226Z,1.00
2019-06-07T16:35:16.101Z,1.00
2019-06-07T16:37:49.630Z,1.00
2019-06-07T16:40:17.095Z,1.00
2019-06-07T16:42:46.376Z,1.00
2019-06-07T16:45:15.829Z,1.00
2019-06-07T16:47:47.536Z,1.00
2019-06-07T16:50:16.589Z,1.00
2019-06-07T16:52:46.562Z,1.00
2019-06-07T16:55:16.924Z,1.00
2019-06-07T16:57:46.361Z,1.00
2019-06-07T17:00:16.025Z,1.00
2019-06-07T17:02:46.985Z,1.00
2019-06-07T17:05:16.612Z,1.00
2019-06-07T17:07:46.891Z,1.00
2019-06-07T17:10:17.426Z,1.00
2019-06-07T17:12:47.010Z,1.00
2019-06-07T17:15:18.446Z,1.00
2019-06-07T17:17:49.135Z,1.00
2019-06-07T17:20:19.587Z,1.00
2019-06-07T17:22:49.750Z,1.00
2019-06-07T17:25:19.217Z,1.00
2019-06-07T17:27:49.981Z,1.00
2019-06-07T17:30:19.707Z,1.00
2019-06-07T17:32:58.182Z,1.00
2019-06-07T17:35:20.094Z,1.00
2019-06-07T17:37:50.168Z,1.00
2019-06-07T17:40:20.603Z,1.00
2019-06-07T17:42:51.029Z,1.00
2019-06-07T17:45:20.762Z,1.00
2019-06-07T17:47:51.960Z,1.00
2019-06-07T17:50:21.579Z,1.00
2019-06-07T17:52:52.043Z,5.80
2019-06-07T17:55:21.711Z,16.10
2019-06-07T17:57:51.040Z,16.70
2019-06-07T18:00:29.344Z,18.90
2019-06-07T18:02:53.029Z,21.60
2019-06-07T18:05:22.525Z,24.00
2019-06-07T18:07:53.887Z,24.50
2019-06-07T18:10:37.919Z,27.50
2019-06-07T18:13:07.287Z,27.00
2019-06-07T18:15:42.354Z,26.80
2019-06-07T18:18:12.107Z,27.20
2019-06-07T18:20:41.979Z,25.60
2019-06-07T18:23:12.131Z,27.20
2019-06-07T18:25:41.712Z,25.50
2019-06-07T18:28:11.302Z,34.60
2019-06-07T18:30:40.816Z,30.50
2019-06-07T18:33:10.116Z,29.50
2019-06-07T18:35:39.395Z,27.90
2019-06-07T18:38:10.870Z,35.20
2019-06-07T18:40:40.338Z,31.40
2019-06-07T18:43:09.638Z,32.50
2019-06-07T18:45:38.916Z,29.80
2019-06-07T18:48:08.266Z,32.00
2019-06-07T18:50:37.585Z,32.20
2019-06-07T18:53:07.189Z,33.70
2019-06-07T18:55:36.707Z,33.30
2019-06-07T18:58:05.991Z,33.30
2019-06-07T19:00:36.695Z,32.00
2019-06-07T19:03:06.058Z,32.80
2019-06-07T19:05:35.569Z,31.70
2019-06-07T19:08:04.919Z,32.70
2019-06-07T19:10:34.466Z,30.00
2019-06-07T19:13:03.757Z,27.10
2019-06-07T19:15:33.324Z,26.00
2019-06-07T19:18:02.772Z,30.00
2019-06-07T19:20:32.464Z,30.70
2019-06-07T19:23:01.801Z,29.50
2019-06-07T19:25:31.105Z,31.40
2019-06-07T19:28:01.044Z,27.30
2019-06-07T19:30:30.469Z,30.00
2019-06-07T19:33:01.377Z,30.70
2019-06-07T19:35:31.132Z,30.20
2019-06-07T19:38:02.054Z,29.50
2019-06-07T19:40:31.787Z,26.80
2019-06-07T19:43:03.728Z,26.90
2019-06-07T19:45:32.106Z,27.20
2019-06-07T19:48:02.682Z,26.90
2019-06-07T19:50:32.307Z,25.80
2019-06-07T19:53:01.658Z,29.40
2019-06-07T19:55:31.054Z,27.00
2019-06-07T19:58:01.644Z,30.00
2019-06-07T20:00:31.118Z,26.50
2019-06-07T20:03:00.431Z,26.00
2019-06-07T20:05:29.839Z,27.10
2019-06-07T20:08:00.505Z,29.30
2019-06-07T20:10:29.893Z,27.50
2019-06-07T20:12:59.176Z,27.20
2019-06-07T20:15:29.714Z,29.40
2019-06-07T20:17:59.311Z,27.60
2019-06-07T20:20:30.105Z,29.40
2019-06-07T20:23:00.818Z,27.80
2019-06-07T20:25:30.376Z,27.30
2019-06-07T20:28:00.081Z,28.10
2019-06-07T20:30:30.538Z,31.60
2019-06-07T20:32:59.957Z,29.40
2019-06-07T20:35:30.706Z,32.10
2019-06-07T20:38:01.062Z,33.60
2019-06-07T20:40:30.513Z,32.20
2019-06-07T20:42:59.812Z,31.90
2019-06-07T20:45:33.481Z,30.60
2019-06-07T20:48:01.956Z,26.90
2019-06-07T20:50:31.409Z,31.80
2019-06-07T20:53:01.313Z,30.80
2019-06-07T20:55:31.749Z,33.60
2019-06-07T20:58:01.035Z,35.50
2019-06-07T21:00:30.321Z,31.90
2019-06-07T21:03:01.150Z,29.40
2019-06-07T21:05:30.619Z,29.80
2019-06-07T21:08:01.634Z,29.20
2019-06-07T21:10:31.395Z,30.70
2019-06-07T21:13:01.870Z,27.40
2019-06-07T21:15:31.299Z,29.40
2019-06-07T21:18:00.602Z,30.10
2019-06-07T21:20:30.141Z,29.90
2019-06-07T21:23:00.688Z,32.60
2019-06-07T21:25:30.373Z,30.30
2019-06-07T21:28:00.846Z,28.50
2019-06-07T21:30:30.342Z,27.30
2019-06-07T21:32:59.616Z,29.90
2019-06-07T21:35:28.927Z,27.80
2019-06-07T21:37:58.263Z,27.40
2019-06-07T21:40:27.555Z,26.90
2019-06-07T21:42:56.856Z,24.20
2019-06-07T21:45:26.220Z,25.60
2019-06-07T21:47:55.499Z,23.20
2019-06-07T21:50:24.804Z,25.20
2019-06-07T21:52:54.152Z,22.40
2019-06-07T21:55:23.456Z,22.50
2019-06-07T21:57:52.844Z,20.90
2019-06-07T22:00:29.534Z,24.30
2019-06-07T22:02:59.860Z,21.10
2019-06-07T22:05:29.155Z,24.40
2019-06-07T22:07:58.456Z,22.60
2019-06-07T22:10:27.819Z,21.70
2019-06-07T22:12:57.449Z,23.20
2019-06-07T22:15:33.329Z,22.10
2019-06-07T22:17:57.852Z,19.80
2019-06-07T22:20:27.141Z,21.40
2019-06-07T22:22:56.775Z,20.70
2019-06-07T22:25:26.123Z,21.50
2019-06-07T22:27:55.415Z,21.20
2019-06-07T22:30:24.700Z,20.10
2019-06-07T22:32:54.283Z,22.20
2019-06-07T22:35:23.574Z,23.90
2019-06-07T22:37:52.867Z,21.90
2019-06-07T22:40:22.140Z,22.80
2019-06-07T22:42:51.434Z,22.70
2019-06-07T22:45:20.808Z,26.50
2019-06-07T22:47:50.106Z,24.40
2019-06-07T22:50:19.456Z,24.60
2019-06-07T22:52:48.751Z,22.40
2019-06-07T22:55:18.230Z,22.60
2019-06-07T22:57:55.411Z,19.70
2019-06-07T23:00:26.336Z,20.30
2019-06-07T23:02:55.868Z,18.30
2019-06-07T23:05:25.263Z,18.20
2019-06-07T23:07:54.618Z,18.80
2019-06-07T23:10:23.909Z,18.70
2019-06-07T23:12:53.202Z,17.30
2019-06-07T23:15:23.264Z,16.00
2019-06-07T23:17:52.559Z,15.20
2019-06-07T23:20:22.170Z,14.70
2019-06-07T23:22:51.452Z,15.60
2019-06-07T23:25:23.972Z,13.70
2019-06-07T23:27:51.734Z,15.00
2019-06-07T23:30:22.267Z,13.10
2019-06-07T23:32:51.873Z,13.80
2019-06-07T23:35:21.306Z,12.00
2019-06-07T23:37:50.716Z,12.60
2019-06-07T23:40:21.583Z,12.70
2019-06-07T23:42:51.089Z,12.90
2019-06-07T23:45:21.713Z,12.70
2019-06-07T23:47:51.124Z,12.60
2019-06-07T23:50:21.770Z,13.30
2019-06-07T23:52:51.283Z,12.60
2019-06-07T23:55:20.584Z,12.10
2019-06-07T23:57:49.873Z,12.50
